createdAt,value
2022-07-26T00:01:41.488Z,7963.70361
2022-07-26T00:16:43.928Z,5559.7583
2022-07-26T00:31:46.325Z,4327.35547
2022-07-26T00:46:48.688Z,8160.229
2022-07-26T01:01:51.150Z,8278.14355
2022-07-26T01:16:53.572Z,8425.2207
2022-07-26T01:31:55.834Z,8072.74365
2022-07-26T01:46:58.195Z,8193.19434
2022-07-26T02:02:00.680Z,6575.34912
2022-07-26T02:17:03.032Z,2553.55835
2022-07-26T02:32:05.305Z,2128.81055
2022-07-26T02:47:07.617Z,1718.00964
2022-07-26T03:02:09.933Z,1266.63586
2022-07-26T03:17:12.251Z,694.81128
2022-07-26T03:32:14.514Z,294.15369
2022-07-26T03:47:16.807Z,76.07423
2022-07-26T04:02:19.154Z,10.14323
2022-07-26T04:17:21.623Z,1.2679
2022-07-26T04:32:23.933Z,0
2022-07-26T04:47:26.254Z,0
2022-07-26T05:02:28.682Z,0
2022-07-26T05:17:31.128Z,0
2022-07-26T05:32:37.565Z,0
2022-07-26T05:47:39.843Z,0
2022-07-26T06:02:42.214Z,0
2022-07-26T06:17:44.641Z,0
2022-07-26T06:32:47.047Z,0
2022-07-26T06:47:49.352Z,0
2022-07-26T07:02:51.860Z,0
2022-07-26T07:17:54.124Z,0
2022-07-26T07:32:56.554Z,0
2022-07-26T07:47:59.000Z,0
2022-07-26T08:03:01.266Z,0
2022-07-26T08:18:03.621Z,0
2022-07-26T08:33:08.858Z,0
2022-07-26T08:48:18.396Z,0
2022-07-26T09:03:21.141Z,0
2022-07-26T09:18:23.515Z,0
2022-07-26T09:33:26.648Z,0
2022-07-26T09:48:36.509Z,0
2022-07-26T10:03:48.717Z,0
2022-07-26T10:18:51.062Z,0
2022-07-26T10:33:53.639Z,0
2022-07-26T10:48:56.099Z,0
2022-07-26T11:03:58.444Z,0
2022-07-26T11:19:00.725Z,0
2022-07-26T11:34:02.976Z,1.2679
2022-07-26T11:49:05.530Z,13.94694
2022-07-26T12:04:08.458Z,88.75327
2022-07-26T12:19:11.161Z,309.36853
2022-07-26T12:34:13.966Z,677.06061
2022-07-26T12:49:16.661Z,1123.36279
2022-07-26T13:04:19.266Z,1781.40479
2022-07-26T13:19:21.540Z,3324.44385
2022-07-26T13:34:23.851Z,4129.5625
2022-07-26T13:49:26.256Z,4929.60986
2022-07-26T14:04:29.117Z,5719.51416
2022-07-26T14:19:31.549Z,6492.93555
2022-07-26T14:34:33.827Z,6912.61133
2022-07-26T14:49:36.243Z,7178.87158
2022-07-26T15:04:38.519Z,7370.32471
2022-07-26T15:19:40.862Z,8100.63721
2022-07-26T15:34:43.163Z,8592.58398
2022-07-26T15:49:45.503Z,8829.68164
2022-07-26T16:04:47.818Z,8607.79883
2022-07-26T16:19:51.102Z,8352.9502
2022-07-26T16:34:53.404Z,8448.04297
2022-07-26T16:49:55.705Z,8103.17334
2022-07-26T17:04:58.175Z,7778.58984
2022-07-26T17:20:00.514Z,7655.60303
2022-07-26T17:35:02.780Z,7568.11768
2022-07-26T18:05:41.079Z,6845.4126
2022-07-26T18:20:43.829Z,6675.51367
2022-07-26T18:35:46.153Z,6381.35986
2022-07-26T18:50:48.413Z,6238.08691
2022-07-26T19:05:53.270Z,6063.11621
2022-07-26T19:20:55.696Z,6039.02588
2022-07-26T19:35:57.993Z,5942.66504
2022-07-26T19:51:00.288Z,5954.07617
2022-07-26T20:06:02.657Z,5989.57764
2022-07-26T20:21:04.973Z,6084.67041
2022-07-26T20:36:07.404Z,6168.35205
2022-07-26T20:51:13.712Z,6262.17676
2022-07-26T21:06:16.435Z,6338.25098
2022-07-26T21:21:18.755Z,6475.18457
2022-07-26T21:36:21.061Z,6537.31201
2022-07-26T21:51:23.371Z,6514.48975
2022-07-26T22:06:25.667Z,6456.16602
2022-07-26T22:21:27.926Z,6243.1582
2022-07-26T22:36:30.379Z,6164.54834
2022-07-26T22:51:32.714Z,6123.97559
2022-07-26T23:06:36.165Z,6207.65723
2022-07-26T23:21:38.509Z,6394.03906
2022-07-26T23:36:40.816Z,6775.67773
2022-07-26T23:51:43.115Z,7147.17383
